sensor_id;sensor_type;location;lat;lon;timestamp;P1;durP1;ratioP1;P2;durP2;ratioP2
19329;SDS011;9799;48.214;16.388;2022-08-21T00:03:02;3.00;;;2.42;;
19329;SDS011;9799;48.214;16.388;2022-08-21T00:06:26;2.95;;;2.75;;
19329;SDS011;9799;48.214;16.388;2022-08-21T00:09:47;3.45;;;3.08;;
19329;SDS011;9799;48.214;16.388;2022-08-21T00:13:08;3.13;;;2.72;;
19329;SDS011;9799;48.214;16.388;2022-08-21T00:16:30;2.72;;;2.53;;
19329;SDS011;9799;48.214;16.388;2022-08-21T00:19:52;3.30;;;2.95;;
19329;SDS011;9799;48.214;16.388;2022-08-21T00:23:14;3.28;;;2.97;;
19329;SDS011;9799;48.214;16.388;2022-08-21T00:26:35;3.08;;;2.78;;
19329;SDS011;9799;48.214;16.388;2022-08-21T00:29:56;3.28;;;2.97;;
19329;SDS011;9799;48.214;16.388;2022-08-21T00:33:17;3.63;;;3.33;;
19329;SDS011;9799;48.214;16.388;2022-08-21T00:36:41;4.07;;;3.75;;
19329;SDS011;9799;48.214;16.388;2022-08-21T00:40:02;3.63;;;3.33;;
19329;SDS011;9799;48.214;16.388;2022-08-21T00:43:28;4.00;;;3.60;;
19329;SDS011;9799;48.214;16.388;2022-08-21T00:46:51;3.60;;;3.20;;
19329;SDS011;9799;48.214;16.388;2022-08-21T00:50:13;3.85;;;3.55;;
19329;SDS011;9799;48.214;16.388;2022-08-21T00:53:36;4.90;;;3.83;;
19329;SDS011;9799;48.214;16.388;2022-08-21T00:57:00;4.30;;;3.75;;
19329;SDS011;9799;48.214;16.388;2022-08-21T01:00:31;3.95;;;3.60;;
19329;SDS011;9799;48.214;16.388;2022-08-21T01:03:54;3.95;;;3.55;;
19329;SDS011;9799;48.214;16.388;2022-08-21T01:07:16;3.78;;;3.47;;
19329;SDS011;9799;48.214;16.388;2022-08-21T01:10:38;4.18;;;3.78;;
19329;SDS011;9799;48.214;16.388;2022-08-21T01:14:00;4.05;;;3.65;;
19329;SDS011;9799;48.214;16.388;2022-08-21T01:17:22;4.35;;;3.95;;
19329;SDS011;9799;48.214;16.388;2022-08-21T01:20:44;4.00;;;3.70;;
19329;SDS011;9799;48.214;16.388;2022-08-21T01:24:17;5.00;;;4.15;;
19329;SDS011;9799;48.214;16.388;2022-08-21T01:27:38;4.43;;;4.13;;
19329;SDS011;9799;48.214;16.388;2022-08-21T01:30:59;4.15;;;3.83;;
19329;SDS011;9799;48.214;16.388;2022-08-21T01:34:23;5.13;;;4.72;;
19329;SDS011;9799;48.214;16.388;2022-08-21T01:37:45;6.18;;;4.72;;
19329;SDS011;9799;48.214;16.388;2022-08-21T01:41:08;4.95;;;4.55;;
19329;SDS011;9799;48.214;16.388;2022-08-21T01:44:29;4.72;;;4.32;;
19329;SDS011;9799;48.214;16.388;2022-08-21T01:47:50;7.30;;;4.07;;
19329;SDS011;9799;48.214;16.388;2022-08-21T01:51:11;5.05;;;4.57;;
19329;SDS011;9799;48.214;16.388;2022-08-21T01:54:34;4.57;;;4.25;;
19329;SDS011;9799;48.214;16.388;2022-08-21T01:57:56;4.95;;;4.45;;
19329;SDS011;9799;48.214;16.388;2022-08-21T02:01:19;3.78;;;3.47;;
19329;SDS011;9799;48.214;16.388;2022-08-21T02:04:40;3.92;;;3.63;;
19329;SDS011;9799;48.214;16.388;2022-08-21T02:08:02;4.00;;;3.60;;
19329;SDS011;9799;48.214;16.388;2022-08-21T02:11:24;2.95;;;2.67;;
19329;SDS011;9799;48.214;16.388;2022-08-21T02:14:46;3.25;;;2.95;;
19329;SDS011;9799;48.214;16.388;2022-08-21T02:18:07;3.00;;;2.80;;
19329;SDS011;9799;48.214;16.388;2022-08-21T02:21:28;3.08;;;2.88;;
19329;SDS011;9799;48.214;16.388;2022-08-21T02:24:49;2.97;;;2.70;;
19329;SDS011;9799;48.214;16.388;2022-08-21T02:28:12;2.75;;;2.55;;
19329;SDS011;9799;48.214;16.388;2022-08-21T02:31:34;2.90;;;2.70;;
19329;SDS011;9799;48.214;16.388;2022-08-21T02:34:56;2.67;;;2.47;;
19329;SDS011;9799;48.214;16.388;2022-08-21T02:38:18;2.70;;;2.50;;
19329;SDS011;9799;48.214;16.388;2022-08-21T02:41:40;2.80;;;2.60;;
19329;SDS011;9799;48.214;16.388;2022-08-21T02:45:04;3.20;;;2.90;;
19329;SDS011;9799;48.214;16.388;2022-08-21T02:48:27;2.63;;;2.42;;
19329;SDS011;9799;48.214;16.388;2022-08-21T02:51:50;2.47;;;2.28;;
19329;SDS011;9799;48.214;16.388;2022-08-21T02:55:11;2.40;;;2.20;;
19329;SDS011;9799;48.214;16.388;2022-08-21T02:58:34;2.47;;;2.28;;
19329;SDS011;9799;48.214;16.388;2022-08-21T03:01:59;2.72;;;2.17;;
19329;SDS011;9799;48.214;16.388;2022-08-21T03:05:20;2.83;;;2.63;;
19329;SDS011;9799;48.214;16.388;2022-08-21T03:08:41;3.35;;;2.33;;
19329;SDS011;9799;48.214;16.388;2022-08-21T03:12:04;3.17;;;2.83;;
19329;SDS011;9799;48.214;16.388;2022-08-21T03:15:25;2.80;;;2.60;;
19329;SDS011;9799;48.214;16.388;2022-08-21T03:18:48;3.05;;;2.70;;
19329;SDS011;9799;48.214;16.388;2022-08-21T03:22:09;2.72;;;2.53;;
19329;SDS011;9799;48.214;16.388;2022-08-21T03:25:30;2.33;;;2.13;;
19329;SDS011;9799;48.214;16.388;2022-08-21T03:28:52;2.05;;;1.95;;
19329;SDS011;9799;48.214;16.388;2022-08-21T03:32:13;2.03;;;1.90;;
19329;SDS011;9799;48.214;16.388;2022-08-21T03:35:36;1.60;;;1.50;;
19329;SDS011;9799;48.214;16.388;2022-08-21T03:38:57;7.88;;;1.67;;
19329;SDS011;9799;48.214;16.388;2022-08-21T03:42:18;1.83;;;1.73;;
19329;SDS011;9799;48.214;16.388;2022-08-21T03:45:39;1.63;;;1.52;;
19329;SDS011;9799;48.214;16.388;2022-08-21T03:49:01;1.65;;;1.55;;
19329;SDS011;9799;48.214;16.388;2022-08-21T03:52:23;1.63;;;1.52;;
19329;SDS011;9799;48.214;16.388;2022-08-21T03:55:46;1.60;;;1.50;;
19329;SDS011;9799;48.214;16.388;2022-08-21T03:59:07;1.70;;;1.60;;
19329;SDS011;9799;48.214;16.388;2022-08-21T04:02:29;1.77;;;1.67;;
19329;SDS011;9799;48.214;16.388;2022-08-21T04:05:51;1.38;;;1.27;;
19329;SDS011;9799;48.214;16.388;2022-08-21T04:09:14;1.52;;;1.42;;
19329;SDS011;9799;48.214;16.388;2022-08-21T04:12:35;2.45;;;1.83;;
19329;SDS011;9799;48.214;16.388;2022-08-21T04:15:56;1.90;;;1.80;;
19329;SDS011;9799;48.214;16.388;2022-08-21T04:19:18;1.98;;;1.88;;
19329;SDS011;9799;48.214;16.388;2022-08-21T04:22:39;3.30;;;1.85;;
19329;SDS011;9799;48.214;16.388;2022-08-21T04:26:02;1.98;;;1.83;;
19329;SDS011;9799;48.214;16.388;2022-08-21T04:29:23;2.75;;;2.08;;
19329;SDS011;9799;48.214;16.388;2022-08-21T04:32:44;2.20;;;1.75;;
19329;SDS011;9799;48.214;16.388;2022-08-21T04:36:07;3.10;;;2.00;;
19329;SDS011;9799;48.214;16.388;2022-08-21T04:39:29;2.35;;;2.15;;
19329;SDS011;9799;48.214;16.388;2022-08-21T04:42:53;2.65;;;2.45;;
19329;SDS011;9799;48.214;16.388;2022-08-21T04:46:15;2.53;;;2.33;;
19329;SDS011;9799;48.214;16.388;2022-08-21T04:49:37;2.70;;;2.50;;
19329;SDS011;9799;48.214;16.388;2022-08-21T04:52:58;2.60;;;2.40;;
19329;SDS011;9799;48.214;16.388;2022-08-21T04:56:22;2.60;;;2.40;;
19329;SDS011;9799;48.214;16.388;2022-08-21T04:59:47;2.90;;;2.70;;
19329;SDS011;9799;48.214;16.388;2022-08-21T05:03:11;2.72;;;2.53;;
19329;SDS011;9799;48.214;16.388;2022-08-21T05:06:34;2.90;;;2.70;;
19329;SDS011;9799;48.214;16.388;2022-08-21T05:09:58;2.75;;;2.55;;
19329;SDS011;9799;48.214;16.388;2022-08-21T05:13:20;2.97;;;2.47;;
19329;SDS011;9799;48.214;16.388;2022-08-21T05:16:43;3.03;;;2.75;;
19329;SDS011;9799;48.214;16.388;2022-08-21T05:20:04;2.97;;;2.78;;
19329;SDS011;9799;48.214;16.388;2022-08-21T05:23:29;3.03;;;2.75;;
19329;SDS011;9799;48.214;16.388;2022-08-21T05:26:50;3.40;;;3.10;;
19329;SDS011;9799;48.214;16.388;2022-08-21T05:30:11;2.70;;;2.50;;
19329;SDS011;9799;48.214;16.388;2022-08-21T05:33:34;3.72;;;3.42;;
19329;SDS011;9799;48.214;16.388;2022-08-21T05:36:56;3.28;;;2.97;;
19329;SDS011;9799;48.214;16.388;2022-08-21T05:40:17;3.50;;;3.20;;
19329;SDS011;9799;48.214;16.388;2022-08-21T05:43:38;3.30;;;3.00;;
19329;SDS011;9799;48.214;16.388;2022-08-21T05:47:02;9.27;;;3.28;;
19329;SDS011;9799;48.214;16.388;2022-08-21T05:50:25;3.67;;;3.38;;
19329;SDS011;9799;48.214;16.388;2022-08-21T05:53:46;5.90;;;3.65;;
19329;SDS011;9799;48.214;16.388;2022-08-21T05:57:08;3.47;;;3.17;;
19329;SDS011;9799;48.214;16.388;2022-08-21T06:00:29;3.25;;;2.95;;
19329;SDS011;9799;48.214;16.388;2022-08-21T06:03:51;3.80;;;3.50;;
19329;SDS011;9799;48.214;16.388;2022-08-21T06:07:13;3.35;;;3.05;;
19329;SDS011;9799;48.214;16.388;2022-08-21T06:10:35;3.67;;;3.38;;
19329;SDS011;9799;48.214;16.388;2022-08-21T06:13:56;3.58;;;3.28;;
19329;SDS011;9799;48.214;16.388;2022-08-21T06:17:18;3.75;;;3.45;;
19329;SDS011;9799;48.214;16.388;2022-08-21T06:20:39;3.65;;;3.35;;
19329;SDS011;9799;48.214;16.388;2022-08-21T06:24:03;3.50;;;3.20;;
19329;SDS011;9799;48.214;16.388;2022-08-21T06:27:26;4.25;;;3.85;;
19329;SDS011;9799;48.214;16.388;2022-08-21T06:30:50;6.28;;;4.18;;
19329;SDS011;9799;48.214;16.388;2022-08-21T06:34:11;4.00;;;3.60;;
19329;SDS011;9799;48.214;16.388;2022-08-21T06:37:32;3.83;;;3.53;;
19329;SDS011;9799;48.214;16.388;2022-08-21T06:40:54;4.22;;;3.92;;
19329;SDS011;9799;48.214;16.388;2022-08-21T06:44:16;3.72;;;3.38;;
19329;SDS011;9799;48.214;16.388;2022-08-21T06:47:38;3.90;;;3.55;;
19329;SDS011;9799;48.214;16.388;2022-08-21T06:50:59;4.43;;;4.00;;
19329;SDS011;9799;48.214;16.388;2022-08-21T06:54:21;4.00;;;3.70;;
19329;SDS011;9799;48.214;16.388;2022-08-21T06:57:44;3.83;;;3.53;;
19329;SDS011;9799;48.214;16.388;2022-08-21T07:01:05;3.72;;;3.42;;
19329;SDS011;9799;48.214;16.388;2022-08-21T07:04:26;3.97;;;3.67;;
19329;SDS011;9799;48.214;16.388;2022-08-21T07:07:47;4.78;;;4.38;;
19329;SDS011;9799;48.214;16.388;2022-08-21T07:11:10;4.10;;;3.80;;
19329;SDS011;9799;48.214;16.388;2022-08-21T07:14:35;3.85;;;3.55;;
19329;SDS011;9799;48.214;16.388;2022-08-21T07:17:57;4.63;;;4.22;;
19329;SDS011;9799;48.214;16.388;2022-08-21T07:21:18;4.47;;;4.00;;
19329;SDS011;9799;48.214;16.388;2022-08-21T07:24:39;4.85;;;4.00;;
19329;SDS011;9799;48.214;16.388;2022-08-21T07:28:00;4.50;;;4.10;;
19329;SDS011;9799;48.214;16.388;2022-08-21T07:31:24;4.72;;;4.32;;
19329;SDS011;9799;48.214;16.388;2022-08-21T07:34:45;6.18;;;4.80;;
19329;SDS011;9799;48.214;16.388;2022-08-21T07:38:07;4.53;;;4.15;;
19329;SDS011;9799;48.214;16.388;2022-08-21T07:41:28;4.15;;;3.85;;
19329;SDS011;9799;48.214;16.388;2022-08-21T07:44:51;4.47;;;4.07;;
19329;SDS011;9799;48.214;16.388;2022-08-21T07:48:13;4.32;;;3.92;;
19329;SDS011;9799;48.214;16.388;2022-08-21T07:51:34;4.13;;;3.72;;
19329;SDS011;9799;48.214;16.388;2022-08-21T07:54:56;4.88;;;4.03;;
19329;SDS011;9799;48.214;16.388;2022-08-21T07:58:17;4.60;;;4.20;;
19329;SDS011;9799;48.214;16.388;2022-08-21T08:01:38;4.22;;;3.85;;
19329;SDS011;9799;48.214;16.388;2022-08-21T08:05:02;4.20;;;3.90;;
19329;SDS011;9799;48.214;16.388;2022-08-21T08:08:25;5.57;;;4.10;;
19329;SDS011;9799;48.214;16.388;2022-08-21T08:11:46;3.83;;;3.53;;
19329;SDS011;9799;48.214;16.388;2022-08-21T08:15:08;4.95;;;4.45;;
19329;SDS011;9799;48.214;16.388;2022-08-21T08:18:32;4.50;;;4.10;;
19329;SDS011;9799;48.214;16.388;2022-08-21T08:21:55;4.68;;;4.28;;
19329;SDS011;9799;48.214;16.388;2022-08-21T08:25:17;5.03;;;4.63;;
19329;SDS011;9799;48.214;16.388;2022-08-21T08:28:40;5.60;;;5.10;;
19329;SDS011;9799;48.214;16.388;2022-08-21T08:32:01;5.10;;;4.60;;
19329;SDS011;9799;48.214;16.388;2022-08-21T08:35:23;4.40;;;4.00;;
19329;SDS011;9799;48.214;16.388;2022-08-21T08:38:46;4.65;;;4.25;;
19329;SDS011;9799;48.214;16.388;2022-08-21T08:42:09;4.65;;;4.25;;
19329;SDS011;9799;48.214;16.388;2022-08-21T08:45:34;4.05;;;3.75;;
19329;SDS011;9799;48.214;16.388;2022-08-21T08:48:58;5.50;;;5.03;;
19329;SDS011;9799;48.214;16.388;2022-08-21T08:52:27;4.72;;;4.32;;
19329;SDS011;9799;48.214;16.388;2022-08-21T08:55:51;4.80;;;4.40;;
19329;SDS011;9799;48.214;16.388;2022-08-21T08:59:15;4.88;;;4.47;;
19329;SDS011;9799;48.214;16.388;2022-08-21T09:02:38;4.78;;;4.38;;
19329;SDS011;9799;48.214;16.388;2022-08-21T09:06:01;4.43;;;4.03;;
19329;SDS011;9799;48.214;16.388;2022-08-21T09:09:31;4.43;;;4.03;;
19329;SDS011;9799;48.214;16.388;2022-08-21T09:13:05;5.65;;;4.13;;
19329;SDS011;9799;48.214;16.388;2022-08-21T09:16:35;4.18;;;3.88;;
19329;SDS011;9799;48.214;16.388;2022-08-21T09:20:14;5.25;;;4.72;;
19329;SDS011;9799;48.214;16.388;2022-08-21T09:23:45;4.47;;;3.80;;
19329;SDS011;9799;48.214;16.388;2022-08-21T09:27:14;4.28;;;3.17;;
19329;SDS011;9799;48.214;16.388;2022-08-21T09:30:38;3.45;;;3.15;;
19329;SDS011;9799;48.214;16.388;2022-08-21T09:34:02;3.90;;;3.60;;
19329;SDS011;9799;48.214;16.388;2022-08-21T09:37:25;3.80;;;3.50;;
19329;SDS011;9799;48.214;16.388;2022-08-21T09:40:54;2.83;;;2.63;;
19329;SDS011;9799;48.214;16.388;2022-08-21T09:44:24;2.97;;;2.78;;
19329;SDS011;9799;48.214;16.388;2022-08-21T09:47:48;2.95;;;2.75;;
19329;SDS011;9799;48.214;16.388;2022-08-21T09:51:10;2.75;;;2.55;;
19329;SDS011;9799;48.214;16.388;2022-08-21T09:54:34;3.08;;;2.80;;
19329;SDS011;9799;48.214;16.388;2022-08-21T09:57:58;2.83;;;2.13;;
19329;SDS011;9799;48.214;16.388;2022-08-21T10:01:19;2.20;;;2.10;;
19329;SDS011;9799;48.214;16.388;2022-08-21T10:04:43;2.15;;;2.00;;
19329;SDS011;9799;48.214;16.388;2022-08-21T10:08:17;1.60;;;1.50;;
19329;SDS011;9799;48.214;16.388;2022-08-21T10:11:40;1.58;;;1.48;;
19329;SDS011;9799;48.214;16.388;2022-08-21T10:15:06;1.80;;;1.60;;
19329;SDS011;9799;48.214;16.388;2022-08-21T10:18:35;1.67;;;1.58;;
19329;SDS011;9799;48.214;16.388;2022-08-21T10:22:05;2.40;;;2.20;;
19329;SDS011;9799;48.214;16.388;2022-08-21T10:25:37;2.60;;;2.40;;
19329;SDS011;9799;48.214;16.388;2022-08-21T10:29:07;2.83;;;2.63;;
19329;SDS011;9799;48.214;16.388;2022-08-21T10:32:52;2.90;;;2.70;;
19329;SDS011;9799;48.214;16.388;2022-08-21T10:36:25;3.35;;;3.05;;
19329;SDS011;9799;48.214;16.388;2022-08-21T10:40:00;3.25;;;3.00;;
19329;SDS011;9799;48.214;16.388;2022-08-21T10:43:30;3.88;;;3.47;;
19329;SDS011;9799;48.214;16.388;2022-08-21T10:47:03;3.13;;;2.83;;
19329;SDS011;9799;48.214;16.388;2022-08-21T10:50:28;3.55;;;3.25;;
19329;SDS011;9799;48.214;16.388;2022-08-21T10:53:55;3.40;;;3.10;;
19329;SDS011;9799;48.214;16.388;2022-08-21T10:57:22;3.05;;;2.75;;
19329;SDS011;9799;48.214;16.388;2022-08-21T11:00:55;3.35;;;3.05;;
19329;SDS011;9799;48.214;16.388;2022-08-21T11:04:19;2.90;;;2.70;;
19329;SDS011;9799;48.214;16.388;2022-08-21T11:07:46;2.95;;;2.75;;
19329;SDS011;9799;48.214;16.388;2022-08-21T11:11:12;4.93;;;2.38;;
19329;SDS011;9799;48.214;16.388;2022-08-21T11:14:41;3.92;;;2.40;;
19329;SDS011;9799;48.214;16.388;2022-08-21T11:18:12;2.40;;;2.17;;
19329;SDS011;9799;48.214;16.388;2022-08-21T11:21:42;2.28;;;2.08;;
19329;SDS011;9799;48.214;16.388;2022-08-21T11:25:09;2.17;;;2.03;;
19329;SDS011;9799;48.214;16.388;2022-08-21T11:28:38;2.08;;;1.88;;
19329;SDS011;9799;48.214;16.388;2022-08-21T11:32:24;2.03;;;1.88;;
19329;SDS011;9799;48.214;16.388;2022-08-21T11:36:08;1.80;;;1.70;;
19329;SDS011;9799;48.214;16.388;2022-08-21T11:39:37;2.08;;;1.83;;
19329;SDS011;9799;48.214;16.388;2022-08-21T11:43:08;1.65;;;1.55;;
19329;SDS011;9799;48.214;16.388;2022-08-21T11:46:38;4.10;;;2.17;;
19329;SDS011;9799;48.214;16.388;2022-08-21T11:50:16;2.17;;;1.70;;
19329;SDS011;9799;48.214;16.388;2022-08-21T11:53:39;2.03;;;1.88;;
19329;SDS011;9799;48.214;16.388;2022-08-21T11:57:13;1.42;;;1.33;;
19329;SDS011;9799;48.214;16.388;2022-08-21T12:00:39;1.85;;;1.55;;
19329;SDS011;9799;48.214;16.388;2022-08-21T12:04:16;2.75;;;1.80;;
19329;SDS011;9799;48.214;16.388;2022-08-21T12:07:44;2.17;;;1.98;;
19329;SDS011;9799;48.214;16.388;2022-08-21T12:11:06;1.90;;;1.80;;
19329;SDS011;9799;48.214;16.388;2022-08-21T12:14:35;1.85;;;1.75;;
19329;SDS011;9799;48.214;16.388;2022-08-21T12:17:58;1.80;;;1.70;;
19329;SDS011;9799;48.214;16.388;2022-08-21T12:21:22;2.35;;;2.15;;
19329;SDS011;9799;48.214;16.388;2022-08-21T12:24:48;1.50;;;1.40;;
19329;SDS011;9799;48.214;16.388;2022-08-21T12:28:11;1.88;;;1.60;;
19329;SDS011;9799;48.214;16.388;2022-08-21T12:31:35;2.85;;;1.88;;
19329;SDS011;9799;48.214;16.388;2022-08-21T12:35:10;1.90;;;1.80;;
19329;SDS011;9799;48.214;16.388;2022-08-21T12:38:39;2.08;;;1.88;;
19329;SDS011;9799;48.214;16.388;2022-08-21T12:42:11;2.35;;;2.15;;
19329;SDS011;9799;48.214;16.388;2022-08-21T12:45:39;1.63;;;1.52;;
19329;SDS011;9799;48.214;16.388;2022-08-21T12:49:07;4.40;;;2.20;;
19329;SDS011;9799;48.214;16.388;2022-08-21T12:52:35;2.65;;;1.67;;
19329;SDS011;9799;48.214;16.388;2022-08-21T12:56:01;2.35;;;2.15;;
19329;SDS011;9799;48.214;16.388;2022-08-21T12:59:25;2.13;;;1.83;;
19329;SDS011;9799;48.214;16.388;2022-08-21T13:02:47;1.98;;;1.88;;
19329;SDS011;9799;48.214;16.388;2022-08-21T13:06:12;1.95;;;1.85;;
19329;SDS011;9799;48.214;16.388;2022-08-21T13:09:38;2.05;;;1.80;;
19329;SDS011;9799;48.214;16.388;2022-08-21T13:13:06;2.20;;;2.00;;
19329;SDS011;9799;48.214;16.388;2022-08-21T13:16:34;2.85;;;2.33;;
19329;SDS011;9799;48.214;16.388;2022-08-21T13:19:56;2.03;;;1.75;;
19329;SDS011;9799;48.214;16.388;2022-08-21T13:23:22;3.17;;;1.98;;
19329;SDS011;9799;48.214;16.388;2022-08-21T13:26:44;1.88;;;1.77;;
19329;SDS011;9799;48.214;16.388;2022-08-21T13:30:08;1.75;;;1.65;;
19329;SDS011;9799;48.214;16.388;2022-08-21T13:33:32;2.50;;;2.03;;
19329;SDS011;9799;48.214;16.388;2022-08-21T13:36:55;4.90;;;4.35;;
19329;SDS011;9799;48.214;16.388;2022-08-21T13:40:20;2.70;;;2.50;;
19329;SDS011;9799;48.214;16.388;2022-08-21T13:43:46;2.35;;;2.15;;
19329;SDS011;9799;48.214;16.388;2022-08-21T13:47:11;1.95;;;1.85;;
19329;SDS011;9799;48.214;16.388;2022-08-21T13:50:36;2.22;;;1.85;;
19329;SDS011;9799;48.214;16.388;2022-08-21T13:53:59;5.20;;;1.90;;
19329;SDS011;9799;48.214;16.388;2022-08-21T13:57:25;2.20;;;1.90;;
19329;SDS011;9799;48.214;16.388;2022-08-21T14:00:48;2.38;;;2.17;;
19329;SDS011;9799;48.214;16.388;2022-08-21T14:04:14;2.22;;;2.00;;
19329;SDS011;9799;48.214;16.388;2022-08-21T14:07:41;2.25;;;2.15;;
19329;SDS011;9799;48.214;16.388;2022-08-21T14:11:05;4.63;;;2.10;;
19329;SDS011;9799;48.214;16.388;2022-08-21T14:14:31;2.97;;;2.78;;
19329;SDS011;9799;48.214;16.388;2022-08-21T14:17:55;2.85;;;2.65;;
19329;SDS011;9799;48.214;16.388;2022-08-21T14:21:29;6.20;;;2.30;;
19329;SDS011;9799;48.214;16.388;2022-08-21T14:24:59;3.53;;;3.10;;
19329;SDS011;9799;48.214;16.388;2022-08-21T14:28:24;3.20;;;2.85;;
19329;SDS011;9799;48.214;16.388;2022-08-21T14:31:49;3.03;;;2.83;;
19329;SDS011;9799;48.214;16.388;2022-08-21T14:35:11;3.55;;;3.25;;
19329;SDS011;9799;48.214;16.388;2022-08-21T14:38:34;4.03;;;3.42;;
19329;SDS011;9799;48.214;16.388;2022-08-21T14:41:58;3.00;;;2.80;;
19329;SDS011;9799;48.214;16.388;2022-08-21T14:45:22;3.85;;;3.55;;
19329;SDS011;9799;48.214;16.388;2022-08-21T14:48:46;3.58;;;3.28;;
19329;SDS011;9799;48.214;16.388;2022-08-21T14:52:08;3.92;;;3.53;;
19329;SDS011;9799;48.214;16.388;2022-08-21T14:55:29;4.10;;;3.75;;
19329;SDS011;9799;48.214;16.388;2022-08-21T14:59:14;3.85;;;3.53;;
19329;SDS011;9799;48.214;16.388;2022-08-21T15:02:35;9.75;;;8.77;;
19329;SDS011;9799;48.214;16.388;2022-08-21T15:05:57;4.57;;;4.18;;
19329;SDS011;9799;48.214;16.388;2022-08-21T15:09:18;4.32;;;3.92;;
19329;SDS011;9799;48.214;16.388;2022-08-21T15:12:40;4.18;;;3.67;;
19329;SDS011;9799;48.214;16.388;2022-08-21T15:16:03;4.28;;;3.90;;
19329;SDS011;9799;48.214;16.388;2022-08-21T15:19:24;8.15;;;3.78;;
19329;SDS011;9799;48.214;16.388;2022-08-21T15:22:46;5.68;;;3.65;;
19329;SDS011;9799;48.214;16.388;2022-08-21T15:26:08;4.88;;;4.18;;
19329;SDS011;9799;48.214;16.388;2022-08-21T15:29:29;9.20;;;5.57;;
19329;SDS011;9799;48.214;16.388;2022-08-21T15:32:52;5.13;;;4.30;;
19329;SDS011;9799;48.214;16.388;2022-08-21T15:36:13;4.28;;;3.88;;
19329;SDS011;9799;48.214;16.388;2022-08-21T15:39:35;4.25;;;3.88;;
19329;SDS011;9799;48.214;16.388;2022-08-21T15:42:57;4.45;;;4.05;;
19329;SDS011;9799;48.214;16.388;2022-08-21T15:46:20;4.38;;;3.97;;
19329;SDS011;9799;48.214;16.388;2022-08-21T15:49:43;5.90;;;5.30;;
19329;SDS011;9799;48.214;16.388;2022-08-21T15:53:05;4.88;;;4.47;;
19329;SDS011;9799;48.214;16.388;2022-08-21T15:56:28;4.43;;;4.03;;
19329;SDS011;9799;48.214;16.388;2022-08-21T15:59:56;4.22;;;3.85;;
19329;SDS011;9799;48.214;16.388;2022-08-21T16:03:18;4.00;;;3.60;;
19329;SDS011;9799;48.214;16.388;2022-08-21T16:06:43;4.90;;;4.43;;
19329;SDS011;9799;48.214;16.388;2022-08-21T16:10:05;4.22;;;3.78;;
19329;SDS011;9799;48.214;16.388;2022-08-21T16:13:29;4.60;;;4.20;;
19329;SDS011;9799;48.214;16.388;2022-08-21T16:16:56;4.03;;;3.65;;
19329;SDS011;9799;48.214;16.388;2022-08-21T16:20:19;6.63;;;4.05;;
19329;SDS011;9799;48.214;16.388;2022-08-21T16:23:44;4.88;;;3.80;;
19329;SDS011;9799;48.214;16.388;2022-08-21T16:27:06;4.38;;;3.97;;
19329;SDS011;9799;48.214;16.388;2022-08-21T16:30:27;4.70;;;4.30;;
19329;SDS011;9799;48.214;16.388;2022-08-21T16:33:50;4.65;;;4.13;;
19329;SDS011;9799;48.214;16.388;2022-08-21T16:37:13;4.35;;;4.03;;
19329;SDS011;9799;48.214;16.388;2022-08-21T16:43:58;5.90;;;4.38;;
19329;SDS011;9799;48.214;16.388;2022-08-21T16:47:20;5.15;;;4.50;;
19329;SDS011;9799;48.214;16.388;2022-08-21T16:50:41;10.02;;;6.50;;
19329;SDS011;9799;48.214;16.388;2022-08-21T16:54:03;4.28;;;3.88;;
19329;SDS011;9799;48.214;16.388;2022-08-21T16:57:25;3.97;;;3.67;;
19329;SDS011;9799;48.214;16.388;2022-08-21T17:00:47;4.85;;;4.45;;
19329;SDS011;9799;48.214;16.388;2022-08-21T17:04:08;4.30;;;3.85;;
19329;SDS011;9799;48.214;16.388;2022-08-21T17:07:30;8.23;;;5.03;;
19329;SDS011;9799;48.214;16.388;2022-08-21T17:10:51;4.43;;;3.60;;
19329;SDS011;9799;48.214;16.388;2022-08-21T17:14:16;6.15;;;4.20;;
19329;SDS011;9799;48.214;16.388;2022-08-21T17:17:40;4.40;;;3.95;;
19329;SDS011;9799;48.214;16.388;2022-08-21T17:21:02;7.75;;;3.75;;
19329;SDS011;9799;48.214;16.388;2022-08-21T17:24:23;4.60;;;4.20;;
19329;SDS011;9799;48.214;16.388;2022-08-21T17:27:45;3.97;;;3.67;;
19329;SDS011;9799;48.214;16.388;2022-08-21T17:31:09;3.50;;;3.05;;
19329;SDS011;9799;48.214;16.388;2022-08-21T17:34:32;3.72;;;3.42;;
19329;SDS011;9799;48.214;16.388;2022-08-21T17:37:53;3.47;;;3.17;;
19329;SDS011;9799;48.214;16.388;2022-08-21T17:41:14;4.00;;;3.45;;
19329;SDS011;9799;48.214;16.388;2022-08-21T17:44:36;5.50;;;3.72;;
19329;SDS011;9799;48.214;16.388;2022-08-21T17:48:00;5.25;;;3.78;;
19329;SDS011;9799;48.214;16.388;2022-08-21T17:51:21;3.65;;;3.35;;
19329;SDS011;9799;48.214;16.388;2022-08-21T17:54:43;4.68;;;3.78;;
19329;SDS011;9799;48.214;16.388;2022-08-21T17:58:04;5.75;;;4.30;;
19329;SDS011;9799;48.214;16.388;2022-08-21T18:01:28;4.22;;;3.88;;
19329;SDS011;9799;48.214;16.388;2022-08-21T18:04:54;3.45;;;3.15;;
19329;SDS011;9799;48.214;16.388;2022-08-21T18:08:15;6.20;;;4.00;;
19329;SDS011;9799;48.214;16.388;2022-08-21T18:11:37;3.72;;;3.42;;
19329;SDS011;9799;48.214;16.388;2022-08-21T18:15:00;6.13;;;3.53;;
19329;SDS011;9799;48.214;16.388;2022-08-21T18:18:22;6.72;;;3.67;;
19329;SDS011;9799;48.214;16.388;2022-08-21T18:21:46;6.22;;;4.25;;
19329;SDS011;9799;48.214;16.388;2022-08-21T18:25:07;4.07;;;3.67;;
19329;SDS011;9799;48.214;16.388;2022-08-21T18:28:29;4.20;;;3.72;;
19329;SDS011;9799;48.214;16.388;2022-08-21T18:31:50;5.00;;;3.95;;
19329;SDS011;9799;48.214;16.388;2022-08-21T18:35:12;3.80;;;3.38;;
19329;SDS011;9799;48.214;16.388;2022-08-21T18:38:36;4.15;;;3.78;;
19329;SDS011;9799;48.214;16.388;2022-08-21T18:41:57;4.90;;;4.40;;
19329;SDS011;9799;48.214;16.388;2022-08-21T18:45:19;4.05;;;3.75;;
19329;SDS011;9799;48.214;16.388;2022-08-21T18:48:41;4.95;;;4.45;;
19329;SDS011;9799;48.214;16.388;2022-08-21T18:52:03;5.63;;;5.13;;
19329;SDS011;9799;48.214;16.388;2022-08-21T18:55:26;5.10;;;4.25;;
19329;SDS011;9799;48.214;16.388;2022-08-21T18:58:47;4.00;;;3.58;;
19329;SDS011;9799;48.214;16.388;2022-08-21T19:02:09;5.90;;;4.07;;
19329;SDS011;9799;48.214;16.388;2022-08-21T19:05:30;5.47;;;3.78;;
19329;SDS011;9799;48.214;16.388;2022-08-21T19:08:51;3.75;;;3.40;;
19329;SDS011;9799;48.214;16.388;2022-08-21T19:12:16;3.85;;;3.55;;
19329;SDS011;9799;48.214;16.388;2022-08-21T19:15:42;5.53;;;4.28;;
19329;SDS011;9799;48.214;16.388;2022-08-21T19:19:05;4.53;;;3.78;;
19329;SDS011;9799;48.214;16.388;2022-08-21T19:22:28;4.13;;;3.78;;
19329;SDS011;9799;48.214;16.388;2022-08-21T19:25:49;6.72;;;3.70;;
19329;SDS011;9799;48.214;16.388;2022-08-21T19:29:17;3.95;;;3.65;;
19329;SDS011;9799;48.214;16.388;2022-08-21T19:32:41;6.93;;;4.45;;
19329;SDS011;9799;48.214;16.388;2022-08-21T19:36:05;4.10;;;3.75;;
19329;SDS011;9799;48.214;16.388;2022-08-21T19:39:27;4.05;;;3.65;;
19329;SDS011;9799;48.214;16.388;2022-08-21T19:42:50;6.70;;;4.28;;
19329;SDS011;9799;48.214;16.388;2022-08-21T19:46:14;4.20;;;3.80;;
19329;SDS011;9799;48.214;16.388;2022-08-21T19:49:42;5.72;;;4.82;;
19329;SDS011;9799;48.214;16.388;2022-08-21T19:53:06;9.30;;;5.00;;
19329;SDS011;9799;48.214;16.388;2022-08-21T19:56:28;6.43;;;4.35;;
19329;SDS011;9799;48.214;16.388;2022-08-21T19:59:50;5.13;;;4.25;;
19329;SDS011;9799;48.214;16.388;2022-08-21T20:03:13;4.45;;;3.95;;
19329;SDS011;9799;48.214;16.388;2022-08-21T20:06:34;4.18;;;3.78;;
19329;SDS011;9799;48.214;16.388;2022-08-21T20:09:56;3.90;;;3.60;;
19329;SDS011;9799;48.214;16.388;2022-08-21T20:13:18;4.50;;;3.92;;
19329;SDS011;9799;48.214;16.388;2022-08-21T20:16:41;4.50;;;4.10;;
19329;SDS011;9799;48.214;16.388;2022-08-21T20:20:04;3.78;;;3.38;;
19329;SDS011;9799;48.214;16.388;2022-08-21T20:23:26;7.78;;;3.63;;
19329;SDS011;9799;48.214;16.388;2022-08-21T20:26:47;5.85;;;3.90;;
19329;SDS011;9799;48.214;16.388;2022-08-21T20:30:09;4.90;;;4.00;;
19329;SDS011;9799;48.214;16.388;2022-08-21T20:33:31;5.32;;;4.53;;